Decoded Metar for KRBG (ROSEBURG in OR, USA) (IATA:RBG) | Meteo·Mobile Aviation Weather
aviador You're here:

KRBG Decoded Metar

ROSEBURG in OR, USA
Report Time2018-08-19 04:53:00
UTC Time2018-08-19 05:26:37
Flight Rules vfr VFR
Wind350° at 03 kt
W.Decomp.*RWY 34: 3.0 kt HW 0.4 kt LCW
W.Rank350° ranks 3
Current wind is below 350° avg. (5.6)
Visibility9999 m
Phenomena:N/A
Clouds:N/A
Expected CloudBase > 6,800 ft AGL from Temp-Dew spread
CeilingNone
Temp26°C (ISA +12)
Dew Point09°C (34% RH)
AAT24.7°C
QNH1018 hPa
Density Alt1,880 ft
Elevation505 ft
Report Wrong Elevation
Raw Report
KRBG 190453Z AUTO 35003KT 10SM CLR 26/09 A3006 RMK AO2 SLP178
T02560094=

Extra information for KRBG:More info

Metar Taf Metar & Taf Last 4 Metars F.Rules Stats Wind Profile Meteogram Temp Stats Airport Information Weather charts Add Link Nearby VenuesMetar ALERT Operation Metar Decoded Social comments

AIRNAV info for KRBG